Disclaimer

Please do not use the information listed here in-flight or in-navigation, as they are not provided to us by the airports but are provided by volunteers, so they might be outdated.

Search


Regions


Airport information page

Radio informations:
Tower (TWR) - 132.55 MHz
Automatic Terminal Information Service (ATIS) - 120.575 MHz

Airport informations:
Latitude: 51° 52' 29.00" N
Longitude: 000° 22' 06.00" W
Elevation: 526 feet - 160 meters
Operating hours: Remarks
Operating agency: Civil government, landing fees and diplomatic clearance may be required
Timezone: UTC 0(+1DT) - Last Sunday in March to last Sunday in October
Fuel: Jet A1, without icing nhibitor.

100/130 MIL Spec, low lead, aviation gasoline (BLUE)

Runway information:
08/26 - 7086 x 151 feet< - >2160 x 46 meters

Recent METARs:
EGGW 151750Z AUTO 15015KT 2200 RA OVC003/// //////TCU 02/02 Q1002
EGGW 151820Z AUTO 15016KT 6000 -RA OVC003 02/02 Q1001 RERA
EGGW 151850Z AUTO 15014KT 2900 -RADZ OVC003 03/03 Q1001

Airport on the map: